sensor_id;sensor_type;location;lat;lon;timestamp;temperature;humidity
44047;DHT22;29713;-33.888;151.150;2022-07-22T00:01:14;15.50;99.90
44047;DHT22;29713;-33.888;151.150;2022-07-22T00:03:42;15.60;99.90
44047;DHT22;29713;-33.888;151.150;2022-07-22T00:06:09;15.70;99.90
44047;DHT22;29713;-33.888;151.150;2022-07-22T00:08:36;15.80;99.90
44047;DHT22;29713;-33.888;151.150;2022-07-22T00:11:05;15.90;99.90
44047;DHT22;29713;-33.888;151.150;2022-07-22T00:13:32;15.90;99.90
44047;DHT22;29713;-33.888;151.150;2022-07-22T00:15:59;15.90;99.90
44047;DHT22;29713;-33.888;151.150;2022-07-22T00:18:27;15.90;99.90
44047;DHT22;29713;-33.888;151.150;2022-07-22T00:20:55;16.00;99.90
44047;DHT22;29713;-33.888;151.150;2022-07-22T00:23:22;16.00;99.90
44047;DHT22;29713;-33.888;151.150;2022-07-22T00:25:49;16.20;99.90
44047;DHT22;29713;-33.888;151.150;2022-07-22T00:28:17;16.30;99.90
44047;DHT22;29713;-33.888;151.150;2022-07-22T00:30:44;16.40;99.90
44047;DHT22;29713;-33.888;151.150;2022-07-22T00:33:11;16.50;99.90
44047;DHT22;29713;-33.888;151.150;2022-07-22T00:35:39;16.70;99.90
44047;DHT22;29713;-33.888;151.150;2022-07-22T00:38:06;17.00;99.90
44047;DHT22;29713;-33.888;151.150;2022-07-22T00:40:33;17.20;99.90
44047;DHT22;29713;-33.888;151.150;2022-07-22T00:43:01;17.40;99.90
44047;DHT22;29713;-33.888;151.150;2022-07-22T00:45:28;17.60;99.90
44047;DHT22;29713;-33.888;151.150;2022-07-22T00:47:56;17.80;99.90
44047;DHT22;29713;-33.888;151.150;2022-07-22T00:50:23;18.00;99.90
44047;DHT22;29713;-33.888;151.150;2022-07-22T00:52:51;18.10;99.90
44047;DHT22;29713;-33.888;151.150;2022-07-22T00:55:19;18.20;99.90
44047;DHT22;29713;-33.888;151.150;2022-07-22T00:57:46;18.30;99.90
44047;DHT22;29713;-33.888;151.150;2022-07-22T01:00:19;18.30;99.90
44047;DHT22;29713;-33.888;151.150;2022-07-22T01:02:47;18.10;99.90
44047;DHT22;29713;-33.888;151.150;2022-07-22T01:05:14;18.00;99.90
44047;DHT22;29713;-33.888;151.150;2022-07-22T01:07:42;18.00;99.90
44047;DHT22;29713;-33.888;151.150;2022-07-22T01:10:09;18.30;99.90
44047;DHT22;29713;-33.888;151.150;2022-07-22T01:12:37;18.40;99.90
44047;DHT22;29713;-33.888;151.150;2022-07-22T01:15:05;18.60;99.90
44047;DHT22;29713;-33.888;151.150;2022-07-22T01:17:33;18.70;99.90
44047;DHT22;29713;-33.888;151.150;2022-07-22T01:20:04;18.60;99.90
44047;DHT22;29713;-33.888;151.150;2022-07-22T01:22:32;18.70;99.90
44047;DHT22;29713;-33.888;151.150;2022-07-22T01:24:59;18.70;99.90
44047;DHT22;29713;-33.888;151.150;2022-07-22T01:27:27;18.70;99.90
44047;DHT22;29713;-33.888;151.150;2022-07-22T01:29:56;18.60;99.90
44047;DHT22;29713;-33.888;151.150;2022-07-22T01:32:23;18.40;99.90
44047;DHT22;29713;-33.888;151.150;2022-07-22T01:34:50;18.40;99.90
44047;DHT22;29713;-33.888;151.150;2022-07-22T01:37:18;18.50;99.90
44047;DHT22;29713;-33.888;151.150;2022-07-22T01:39:45;18.80;99.90
44047;DHT22;29713;-33.888;151.150;2022-07-22T01:42:12;19.10;99.90
44047;DHT22;29713;-33.888;151.150;2022-07-22T01:44:40;19.30;99.90
44047;DHT22;29713;-33.888;151.150;2022-07-22T01:47:08;19.40;99.90
44047;DHT22;29713;-33.888;151.150;2022-07-22T01:49:36;19.70;99.90
44047;DHT22;29713;-33.888;151.150;2022-07-22T01:52:04;19.90;99.90
44047;DHT22;29713;-33.888;151.150;2022-07-22T01:54:32;20.10;99.90
44047;DHT22;29713;-33.888;151.150;2022-07-22T01:56:59;20.00;99.90
44047;DHT22;29713;-33.888;151.150;2022-07-22T01:59:27;19.70;99.90
44047;DHT22;29713;-33.888;151.150;2022-07-22T02:01:54;19.40;99.90
44047;DHT22;29713;-33.888;151.150;2022-07-22T02:04:22;19.20;99.90
44047;DHT22;29713;-33.888;151.150;2022-07-22T02:06:49;19.30;99.90
44047;DHT22;29713;-33.888;151.150;2022-07-22T02:09:16;19.40;99.90
44047;DHT22;29713;-33.888;151.150;2022-07-22T02:11:43;19.70;99.90
44047;DHT22;29713;-33.888;151.150;2022-07-22T02:14:11;19.70;99.90
44047;DHT22;29713;-33.888;151.150;2022-07-22T02:16:38;20.00;99.90
44047;DHT22;29713;-33.888;151.150;2022-07-22T02:19:06;20.40;99.90
44047;DHT22;29713;-33.888;151.150;2022-07-22T02:21:33;20.80;99.90
44047;DHT22;29713;-33.888;151.150;2022-07-22T02:24:00;20.80;99.90
44047;DHT22;29713;-33.888;151.150;2022-07-22T02:26:28;20.40;99.90
44047;DHT22;29713;-33.888;151.150;2022-07-22T02:28:55;19.70;99.90
44047;DHT22;29713;-33.888;151.150;2022-07-22T02:31:23;19.40;99.90
44047;DHT22;29713;-33.888;151.150;2022-07-22T02:33:50;19.00;99.90
44047;DHT22;29713;-33.888;151.150;2022-07-22T02:36:18;18.80;99.90
44047;DHT22;29713;-33.888;151.150;2022-07-22T02:38:45;18.50;99.90
44047;DHT22;29713;-33.888;151.150;2022-07-22T02:41:13;18.20;99.90
44047;DHT22;29713;-33.888;151.150;2022-07-22T02:43:40;18.00;99.90
44047;DHT22;29713;-33.888;151.150;2022-07-22T02:46:07;17.90;99.90
44047;DHT22;29713;-33.888;151.150;2022-07-22T02:48:34;17.90;99.90
44047;DHT22;29713;-33.888;151.150;2022-07-22T02:51:02;17.90;99.90
44047;DHT22;29713;-33.888;151.150;2022-07-22T02:53:30;17.80;99.90
44047;DHT22;29713;-33.888;151.150;2022-07-22T02:55:57;17.70;99.90
44047;DHT22;29713;-33.888;151.150;2022-07-22T02:58:24;17.60;99.90
44047;DHT22;29713;-33.888;151.150;2022-07-22T03:00:51;17.40;99.90
44047;DHT22;29713;-33.888;151.150;2022-07-22T03:03:19;17.30;99.90
44047;DHT22;29713;-33.888;151.150;2022-07-22T03:05:46;17.30;99.90
44047;DHT22;29713;-33.888;151.150;2022-07-22T03:08:13;17.20;99.90
44047;DHT22;29713;-33.888;151.150;2022-07-22T03:10:41;17.20;99.90
44047;DHT22;29713;-33.888;151.150;2022-07-22T03:13:08;17.10;99.90
44047;DHT22;29713;-33.888;151.150;2022-07-22T03:15:36;16.90;99.90
44047;DHT22;29713;-33.888;151.150;2022-07-22T03:18:03;16.70;99.90
44047;DHT22;29713;-33.888;151.150;2022-07-22T03:20:30;16.30;99.90
44047;DHT22;29713;-33.888;151.150;2022-07-22T03:23:00;16.10;99.90
44047;DHT22;29713;-33.888;151.150;2022-07-22T03:25:27;15.90;99.90
44047;DHT22;29713;-33.888;151.150;2022-07-22T03:27:57;15.80;99.90
44047;DHT22;29713;-33.888;151.150;2022-07-22T03:30:24;15.90;99.90
44047;DHT22;29713;-33.888;151.150;2022-07-22T03:32:52;15.90;99.90
44047;DHT22;29713;-33.888;151.150;2022-07-22T03:35:19;15.90;99.90
44047;DHT22;29713;-33.888;151.150;2022-07-22T03:37:46;15.80;99.90
44047;DHT22;29713;-33.888;151.150;2022-07-22T03:40:14;15.80;99.90
44047;DHT22;29713;-33.888;151.150;2022-07-22T03:42:41;15.90;99.90
44047;DHT22;29713;-33.888;151.150;2022-07-22T03:45:09;15.90;99.90
44047;DHT22;29713;-33.888;151.150;2022-07-22T03:47:37;15.90;99.90
44047;DHT22;29713;-33.888;151.150;2022-07-22T03:50:05;16.00;99.90
44047;DHT22;29713;-33.888;151.150;2022-07-22T03:52:33;16.20;99.90
44047;DHT22;29713;-33.888;151.150;2022-07-22T03:55:00;16.30;99.90
44047;DHT22;29713;-33.888;151.150;2022-07-22T03:57:27;16.40;99.90
44047;DHT22;29713;-33.888;151.150;2022-07-22T03:59:55;16.50;99.90
44047;DHT22;29713;-33.888;151.150;2022-07-22T04:02:22;16.50;99.90
44047;DHT22;29713;-33.888;151.150;2022-07-22T04:04:50;16.50;99.90
44047;DHT22;29713;-33.888;151.150;2022-07-22T04:07:17;16.50;99.90
44047;DHT22;29713;-33.888;151.150;2022-07-22T04:09:44;16.50;99.90
44047;DHT22;29713;-33.888;151.150;2022-07-22T04:12:12;16.40;99.90
44047;DHT22;29713;-33.888;151.150;2022-07-22T04:14:39;16.30;99.90
44047;DHT22;29713;-33.888;151.150;2022-07-22T04:17:06;16.20;99.90
44047;DHT22;29713;-33.888;151.150;2022-07-22T04:19:33;16.20;99.90
44047;DHT22;29713;-33.888;151.150;2022-07-22T04:22:01;16.20;99.90
44047;DHT22;29713;-33.888;151.150;2022-07-22T04:24:28;16.30;99.90
44047;DHT22;29713;-33.888;151.150;2022-07-22T04:26:55;16.20;99.90
44047;DHT22;29713;-33.888;151.150;2022-07-22T04:29:23;16.30;99.90
44047;DHT22;29713;-33.888;151.150;2022-07-22T04:31:50;16.20;99.90
44047;DHT22;29713;-33.888;151.150;2022-07-22T04:34:17;16.20;99.90
44047;DHT22;29713;-33.888;151.150;2022-07-22T04:36:45;16.20;99.90
44047;DHT22;29713;-33.888;151.150;2022-07-22T04:39:12;16.20;99.90
44047;DHT22;29713;-33.888;151.150;2022-07-22T04:41:39;16.10;99.90
44047;DHT22;29713;-33.888;151.150;2022-07-22T04:44:06;16.10;99.90
44047;DHT22;29713;-33.888;151.150;2022-07-22T04:46:34;16.10;99.90
44047;DHT22;29713;-33.888;151.150;2022-07-22T04:49:01;16.10;99.90
44047;DHT22;29713;-33.888;151.150;2022-07-22T04:51:29;16.00;99.90
44047;DHT22;29713;-33.888;151.150;2022-07-22T04:53:56;15.90;99.90
44047;DHT22;29713;-33.888;151.150;2022-07-22T04:56:23;15.80;99.90
44047;DHT22;29713;-33.888;151.150;2022-07-22T04:58:51;15.80;99.90
44047;DHT22;29713;-33.888;151.150;2022-07-22T05:01:18;15.70;99.90
44047;DHT22;29713;-33.888;151.150;2022-07-22T05:03:45;15.70;99.90
44047;DHT22;29713;-33.888;151.150;2022-07-22T05:06:13;15.60;99.90
44047;DHT22;29713;-33.888;151.150;2022-07-22T05:08:40;15.70;99.90
44047;DHT22;29713;-33.888;151.150;2022-07-22T05:11:08;15.70;99.90
44047;DHT22;29713;-33.888;151.150;2022-07-22T05:13:35;15.80;99.90
44047;DHT22;29713;-33.888;151.150;2022-07-22T05:16:04;15.80;99.90
44047;DHT22;29713;-33.888;151.150;2022-07-22T05:18:32;15.80;99.90
44047;DHT22;29713;-33.888;151.150;2022-07-22T05:21:00;15.80;99.90
44047;DHT22;29713;-33.888;151.150;2022-07-22T05:23:27;15.80;99.90
44047;DHT22;29713;-33.888;151.150;2022-07-22T05:25:55;15.90;99.90
44047;DHT22;29713;-33.888;151.150;2022-07-22T05:28:22;15.90;99.90
44047;DHT22;29713;-33.888;151.150;2022-07-22T05:30:50;15.90;99.90
44047;DHT22;29713;-33.888;151.150;2022-07-22T05:33:17;15.90;99.90
44047;DHT22;29713;-33.888;151.150;2022-07-22T05:35:44;15.90;99.90
44047;DHT22;29713;-33.888;151.150;2022-07-22T05:38:11;15.90;99.90
44047;DHT22;29713;-33.888;151.150;2022-07-22T05:40:39;15.90;99.90
44047;DHT22;29713;-33.888;151.150;2022-07-22T05:43:06;16.00;99.90
44047;DHT22;29713;-33.888;151.150;2022-07-22T05:45:33;16.00;99.90
44047;DHT22;29713;-33.888;151.150;2022-07-22T05:48:01;16.00;99.90
44047;DHT22;29713;-33.888;151.150;2022-07-22T05:50:28;16.00;99.90
44047;DHT22;29713;-33.888;151.150;2022-07-22T05:52:56;16.00;99.90
44047;DHT22;29713;-33.888;151.150;2022-07-22T05:55:23;16.00;99.90
44047;DHT22;29713;-33.888;151.150;2022-07-22T05:57:50;16.00;99.90
44047;DHT22;29713;-33.888;151.150;2022-07-22T06:00:18;15.90;99.90
44047;DHT22;29713;-33.888;151.150;2022-07-22T06:02:45;15.90;99.90
44047;DHT22;29713;-33.888;151.150;2022-07-22T06:05:12;15.90;99.90
44047;DHT22;29713;-33.888;151.150;2022-07-22T06:07:40;15.80;99.90
44047;DHT22;29713;-33.888;151.150;2022-07-22T06:10:07;15.80;99.90
44047;DHT22;29713;-33.888;151.150;2022-07-22T06:12:35;15.80;99.90
44047;DHT22;29713;-33.888;151.150;2022-07-22T06:15:03;15.80;99.90
44047;DHT22;29713;-33.888;151.150;2022-07-22T06:17:31;15.70;99.90
44047;DHT22;29713;-33.888;151.150;2022-07-22T06:19:59;15.70;99.90
44047;DHT22;29713;-33.888;151.150;2022-07-22T06:22:26;15.60;99.90
44047;DHT22;29713;-33.888;151.150;2022-07-22T06:24:53;15.60;99.90
44047;DHT22;29713;-33.888;151.150;2022-07-22T06:27:21;15.50;99.90
44047;DHT22;29713;-33.888;151.150;2022-07-22T06:29:48;15.50;99.90
44047;DHT22;29713;-33.888;151.150;2022-07-22T06:32:15;15.50;99.90
44047;DHT22;29713;-33.888;151.150;2022-07-22T06:34:43;15.50;99.90
44047;DHT22;29713;-33.888;151.150;2022-07-22T06:37:11;15.50;99.90
44047;DHT22;29713;-33.888;151.150;2022-07-22T06:39:38;15.40;99.90
44047;DHT22;29713;-33.888;151.150;2022-07-22T06:42:05;15.40;99.90
44047;DHT22;29713;-33.888;151.150;2022-07-22T06:44:33;15.30;99.90
44047;DHT22;29713;-33.888;151.150;2022-07-22T06:47:00;15.30;99.90
44047;DHT22;29713;-33.888;151.150;2022-07-22T06:49:27;15.30;99.90
44047;DHT22;29713;-33.888;151.150;2022-07-22T06:51:55;15.30;99.90
44047;DHT22;29713;-33.888;151.150;2022-07-22T06:54:22;15.30;99.90
44047;DHT22;29713;-33.888;151.150;2022-07-22T06:56:49;15.20;99.90
44047;DHT22;29713;-33.888;151.150;2022-07-22T06:59:17;15.20;99.90
44047;DHT22;29713;-33.888;151.150;2022-07-22T07:01:44;15.20;99.90
44047;DHT22;29713;-33.888;151.150;2022-07-22T07:04:11;15.20;99.90
44047;DHT22;29713;-33.888;151.150;2022-07-22T07:06:39;15.20;99.90
44047;DHT22;29713;-33.888;151.150;2022-07-22T07:09:06;15.20;99.90
44047;DHT22;29713;-33.888;151.150;2022-07-22T07:11:34;15.20;99.90
44047;DHT22;29713;-33.888;151.150;2022-07-22T07:14:01;15.20;99.90
44047;DHT22;29713;-33.888;151.150;2022-07-22T07:16:29;15.10;99.90
44047;DHT22;29713;-33.888;151.150;2022-07-22T07:18:56;15.10;99.90
44047;DHT22;29713;-33.888;151.150;2022-07-22T07:21:24;15.10;99.90
44047;DHT22;29713;-33.888;151.150;2022-07-22T07:23:52;15.00;99.90
44047;DHT22;29713;-33.888;151.150;2022-07-22T07:26:19;15.10;99.90
44047;DHT22;29713;-33.888;151.150;2022-07-22T07:28:47;15.00;99.90
44047;DHT22;29713;-33.888;151.150;2022-07-22T07:31:14;15.00;99.90
44047;DHT22;29713;-33.888;151.150;2022-07-22T07:33:41;15.10;99.90
44047;DHT22;29713;-33.888;151.150;2022-07-22T07:36:09;15.00;99.90
44047;DHT22;29713;-33.888;151.150;2022-07-22T07:38:36;15.00;99.90
44047;DHT22;29713;-33.888;151.150;2022-07-22T07:41:04;15.00;99.90
44047;DHT22;29713;-33.888;151.150;2022-07-22T07:43:31;15.00;99.90
44047;DHT22;29713;-33.888;151.150;2022-07-22T07:45:58;15.00;99.90
44047;DHT22;29713;-33.888;151.150;2022-07-22T07:48:26;15.10;99.90
44047;DHT22;29713;-33.888;151.150;2022-07-22T07:50:53;15.10;99.90
44047;DHT22;29713;-33.888;151.150;2022-07-22T07:53:20;15.10;99.90
44047;DHT22;29713;-33.888;151.150;2022-07-22T07:55:49;15.10;99.90
44047;DHT22;29713;-33.888;151.150;2022-07-22T07:58:17;15.10;99.90
44047;DHT22;29713;-33.888;151.150;2022-07-22T08:00:45;15.10;99.90
44047;DHT22;29713;-33.888;151.150;2022-07-22T08:03:13;15.10;99.90
44047;DHT22;29713;-33.888;151.150;2022-07-22T08:05:40;15.10;99.90
44047;DHT22;29713;-33.888;151.150;2022-07-22T08:08:08;15.10;99.90
44047;DHT22;29713;-33.888;151.150;2022-07-22T08:10:35;15.00;99.90
44047;DHT22;29713;-33.888;151.150;2022-07-22T08:13:03;15.00;99.90
44047;DHT22;29713;-33.888;151.150;2022-07-22T08:15:32;14.90;99.90
44047;DHT22;29713;-33.888;151.150;2022-07-22T08:18:00;14.90;99.90
44047;DHT22;29713;-33.888;151.150;2022-07-22T08:20:28;14.90;99.90
44047;DHT22;29713;-33.888;151.150;2022-07-22T08:22:57;14.80;99.90
44047;DHT22;29713;-33.888;151.150;2022-07-22T08:25:24;14.80;99.90
44047;DHT22;29713;-33.888;151.150;2022-07-22T08:27:55;14.80;99.90
44047;DHT22;29713;-33.888;151.150;2022-07-22T08:30:23;14.80;99.90
44047;DHT22;29713;-33.888;151.150;2022-07-22T08:32:53;14.80;99.90
44047;DHT22;29713;-33.888;151.150;2022-07-22T08:35:21;14.80;99.90
44047;DHT22;29713;-33.888;151.150;2022-07-22T08:37:49;14.80;99.90
44047;DHT22;29713;-33.888;151.150;2022-07-22T08:40:18;14.80;99.90
44047;DHT22;29713;-33.888;151.150;2022-07-22T08:42:47;14.80;99.90
44047;DHT22;29713;-33.888;151.150;2022-07-22T08:45:15;14.90;99.90
44047;DHT22;29713;-33.888;151.150;2022-07-22T08:47:48;14.80;99.90
44047;DHT22;29713;-33.888;151.150;2022-07-22T08:50:16;14.80;99.90
44047;DHT22;29713;-33.888;151.150;2022-07-22T08:52:44;14.80;99.90
44047;DHT22;29713;-33.888;151.150;2022-07-22T08:55:11;14.70;99.90
44047;DHT22;29713;-33.888;151.150;2022-07-22T08:57:47;14.70;99.90
44047;DHT22;29713;-33.888;151.150;2022-07-22T09:00:21;14.60;99.90
44047;DHT22;29713;-33.888;151.150;2022-07-22T09:02:48;14.60;99.90
44047;DHT22;29713;-33.888;151.150;2022-07-22T09:05:17;14.60;99.90
44047;DHT22;29713;-33.888;151.150;2022-07-22T09:07:45;14.50;99.90
44047;DHT22;29713;-33.888;151.150;2022-07-22T09:10:18;14.50;99.90
44047;DHT22;29713;-33.888;151.150;2022-07-22T09:15:31;14.50;99.90
44047;DHT22;29713;-33.888;151.150;2022-07-22T09:18:00;14.50;99.90
44047;DHT22;29713;-33.888;151.150;2022-07-22T09:20:29;14.50;99.90
44047;DHT22;29713;-33.888;151.150;2022-07-22T09:22:56;14.50;99.90
44047;DHT22;29713;-33.888;151.150;2022-07-22T09:25:32;14.50;99.90
44047;DHT22;29713;-33.888;151.150;2022-07-22T09:30:39;14.50;99.90
44047;DHT22;29713;-33.888;151.150;2022-07-22T09:33:08;14.50;99.90
44047;DHT22;29713;-33.888;151.150;2022-07-22T09:35:35;14.50;99.90
44047;DHT22;29713;-33.888;151.150;2022-07-22T09:38:04;14.50;99.90
44047;DHT22;29713;-33.888;151.150;2022-07-22T09:40:34;14.50;99.90
44047;DHT22;29713;-33.888;151.150;2022-07-22T09:43:06;14.40;99.90
44047;DHT22;29713;-33.888;151.150;2022-07-22T09:45:45;14.50;99.90
44047;DHT22;29713;-33.888;151.150;2022-07-22T09:48:15;14.50;99.90
44047;DHT22;29713;-33.888;151.150;2022-07-22T09:50:44;14.50;99.90
44047;DHT22;29713;-33.888;151.150;2022-07-22T09:53:12;14.50;99.90
44047;DHT22;29713;-33.888;151.150;2022-07-22T09:55:40;14.50;99.90
44047;DHT22;29713;-33.888;151.150;2022-07-22T09:58:08;14.60;99.90
44047;DHT22;29713;-33.888;151.150;2022-07-22T10:00:36;14.50;99.90
44047;DHT22;29713;-33.888;151.150;2022-07-22T10:03:06;14.60;99.90
44047;DHT22;29713;-33.888;151.150;2022-07-22T10:05:39;14.60;99.90
44047;DHT22;29713;-33.888;151.150;2022-07-22T10:08:08;14.60;99.90
44047;DHT22;29713;-33.888;151.150;2022-07-22T10:10:37;14.60;99.90
44047;DHT22;29713;-33.888;151.150;2022-07-22T10:13:05;14.60;99.90
44047;DHT22;29713;-33.888;151.150;2022-07-22T10:15:34;14.60;99.90
44047;DHT22;29713;-33.888;151.150;2022-07-22T10:18:36;14.60;99.90
44047;DHT22;29713;-33.888;151.150;2022-07-22T10:21:05;14.60;99.90
44047;DHT22;29713;-33.888;151.150;2022-07-22T10:23:33;14.60;99.90
44047;DHT22;29713;-33.888;151.150;2022-07-22T10:26:02;14.60;99.90
44047;DHT22;29713;-33.888;151.150;2022-07-22T10:28:37;14.60;99.90
44047;DHT22;29713;-33.888;151.150;2022-07-22T10:31:23;14.60;99.90
44047;DHT22;29713;-33.888;151.150;2022-07-22T10:33:56;14.60;99.90
44047;DHT22;29713;-33.888;151.150;2022-07-22T10:39:07;14.60;99.90
44047;DHT22;29713;-33.888;151.150;2022-07-22T10:41:36;14.60;99.90
44047;DHT22;29713;-33.888;151.150;2022-07-22T10:44:05;14.60;99.90
44047;DHT22;29713;-33.888;151.150;2022-07-22T10:46:55;14.70;99.90
44047;DHT22;29713;-33.888;151.150;2022-07-22T10:49:26;14.70;99.90
44047;DHT22;29713;-33.888;151.150;2022-07-22T10:52:30;14.70;99.90
44047;DHT22;29713;-33.888;151.150;2022-07-22T10:55:19;14.60;99.90
44047;DHT22;29713;-33.888;151.150;2022-07-22T10:57:46;14.60;99.90
44047;DHT22;29713;-33.888;151.150;2022-07-22T11:00:15;14.60;99.90
44047;DHT22;29713;-33.888;151.150;2022-07-22T11:02:43;14.60;99.90
44047;DHT22;29713;-33.888;151.150;2022-07-22T11:05:10;14.60;99.90
44047;DHT22;29713;-33.888;151.150;2022-07-22T11:07:45;14.60;99.90
44047;DHT22;29713;-33.888;151.150;2022-07-22T11:10:15;14.60;99.90
44047;DHT22;29713;-33.888;151.150;2022-07-22T11:12:44;14.50;99.90
44047;DHT22;29713;-33.888;151.150;2022-07-22T11:15:13;14.50;99.90
44047;DHT22;29713;-33.888;151.150;2022-07-22T11:17:40;14.50;99.90
44047;DHT22;29713;-33.888;151.150;2022-07-22T11:20:10;14.50;99.90
44047;DHT22;29713;-33.888;151.150;2022-07-22T11:22:38;14.50;99.90
44047;DHT22;29713;-33.888;151.150;2022-07-22T11:25:08;14.50;99.90
44047;DHT22;29713;-33.888;151.150;2022-07-22T11:31:17;14.40;99.90
44047;DHT22;29713;-33.888;151.150;2022-07-22T11:33:47;14.40;99.90
44047;DHT22;29713;-33.888;151.150;2022-07-22T11:39:23;14.40;99.90
44047;DHT22;29713;-33.888;151.150;2022-07-22T11:42:08;14.40;99.90
44047;DHT22;29713;-33.888;151.150;2022-07-22T11:44:37;14.40;99.90
44047;DHT22;29713;-33.888;151.150;2022-07-22T11:47:06;14.30;99.90
44047;DHT22;29713;-33.888;151.150;2022-07-22T11:49:35;14.30;99.90
44047;DHT22;29713;-33.888;151.150;2022-07-22T11:52:10;14.30;99.90
44047;DHT22;29713;-33.888;151.150;2022-07-22T11:54:42;14.30;99.90
44047;DHT22;29713;-33.888;151.150;2022-07-22T11:57:11;14.30;99.90
44047;DHT22;29713;-33.888;151.150;2022-07-22T11:59:39;14.30;99.90
44047;DHT22;29713;-33.888;151.150;2022-07-22T12:02:07;14.40;99.90
44047;DHT22;29713;-33.888;151.150;2022-07-22T12:04:36;14.40;99.90
44047;DHT22;29713;-33.888;151.150;2022-07-22T12:07:05;14.40;99.90
44047;DHT22;29713;-33.888;151.150;2022-07-22T12:09:37;14.40;99.90
44047;DHT22;29713;-33.888;151.150;2022-07-22T12:12:05;14.40;99.90
44047;DHT22;29713;-33.888;151.150;2022-07-22T12:14:33;14.40;99.90
44047;DHT22;29713;-33.888;151.150;2022-07-22T12:17:09;14.40;99.90
44047;DHT22;29713;-33.888;151.150;2022-07-22T12:19:38;14.40;99.90
44047;DHT22;29713;-33.888;151.150;2022-07-22T12:22:11;14.30;99.90
44047;DHT22;29713;-33.888;151.150;2022-07-22T12:24:45;14.30;99.90
44047;DHT22;29713;-33.888;151.150;2022-07-22T12:27:14;14.30;99.90
44047;DHT22;29713;-33.888;151.150;2022-07-22T12:29:47;14.30;99.90
44047;DHT22;29713;-33.888;151.150;2022-07-22T12:32:17;14.30;99.90
44047;DHT22;29713;-33.888;151.150;2022-07-22T12:34:58;14.30;99.90
44047;DHT22;29713;-33.888;151.150;2022-07-22T12:42:30;14.20;99.90
44047;DHT22;29713;-33.888;151.150;2022-07-22T12:45:13;14.20;99.90
44047;DHT22;29713;-33.888;151.150;2022-07-22T12:47:53;14.20;99.90
44047;DHT22;29713;-33.888;151.150;2022-07-22T12:50:30;14.20;99.90
44047;DHT22;29713;-33.888;151.150;2022-07-22T12:53:18;14.20;99.90
44047;DHT22;29713;-33.888;151.150;2022-07-22T12:55:48;14.20;99.90
44047;DHT22;29713;-33.888;151.150;2022-07-22T12:58:18;14.30;99.90
44047;DHT22;29713;-33.888;151.150;2022-07-22T13:00:50;14.20;99.90
44047;DHT22;29713;-33.888;151.150;2022-07-22T13:03:19;14.20;99.90
44047;DHT22;29713;-33.888;151.150;2022-07-22T13:05:51;14.30;99.90
44047;DHT22;29713;-33.888;151.150;2022-07-22T13:08:18;14.30;99.90
44047;DHT22;29713;-33.888;151.150;2022-07-22T13:10:45;14.30;99.90
44047;DHT22;29713;-33.888;151.150;2022-07-22T13:13:13;14.30;99.90
44047;DHT22;29713;-33.888;151.150;2022-07-22T13:15:40;14.30;99.90
44047;DHT22;29713;-33.888;151.150;2022-07-22T13:18:08;14.40;99.90
44047;DHT22;29713;-33.888;151.150;2022-07-22T13:20:35;14.30;99.90
44047;DHT22;29713;-33.888;151.150;2022-07-22T13:23:03;14.30;99.90
44047;DHT22;29713;-33.888;151.150;2022-07-22T13:25:30;14.30;99.90
44047;DHT22;29713;-33.888;151.150;2022-07-22T13:27:59;14.20;99.90
44047;DHT22;29713;-33.888;151.150;2022-07-22T13:30:27;14.20;99.90
44047;DHT22;29713;-33.888;151.150;2022-07-22T13:32:54;14.10;99.90
44047;DHT22;29713;-33.888;151.150;2022-07-22T13:35:22;14.10;99.90
44047;DHT22;29713;-33.888;151.150;2022-07-22T13:37:50;14.00;99.90
44047;DHT22;29713;-33.888;151.150;2022-07-22T13:40:17;14.00;99.90
44047;DHT22;29713;-33.888;151.150;2022-07-22T13:42:45;14.00;99.90
44047;DHT22;29713;-33.888;151.150;2022-07-22T13:45:12;14.00;99.90
44047;DHT22;29713;-33.888;151.150;2022-07-22T13:47:41;14.00;99.90
44047;DHT22;29713;-33.888;151.150;2022-07-22T13:50:09;14.00;99.90
44047;DHT22;29713;-33.888;151.150;2022-07-22T13:52:37;13.90;99.90
44047;DHT22;29713;-33.888;151.150;2022-07-22T13:55:05;13.90;99.90
44047;DHT22;29713;-33.888;151.150;2022-07-22T13:57:33;13.90;99.90
44047;DHT22;29713;-33.888;151.150;2022-07-22T14:00:01;13.80;99.90
44047;DHT22;29713;-33.888;151.150;2022-07-22T14:02:29;13.80;99.90
44047;DHT22;29713;-33.888;151.150;2022-07-22T14:04:57;13.80;99.90
44047;DHT22;29713;-33.888;151.150;2022-07-22T14:07:24;13.80;99.90
44047;DHT22;29713;-33.888;151.150;2022-07-22T14:09:52;13.80;99.90
44047;DHT22;29713;-33.888;151.150;2022-07-22T14:12:19;13.80;99.90
44047;DHT22;29713;-33.888;151.150;2022-07-22T14:14:46;13.80;99.90
44047;DHT22;29713;-33.888;151.150;2022-07-22T14:17:14;13.80;99.90
44047;DHT22;29713;-33.888;151.150;2022-07-22T14:19:41;13.80;99.90
44047;DHT22;29713;-33.888;151.150;2022-07-22T14:22:08;13.80;99.90
44047;DHT22;29713;-33.888;151.150;2022-07-22T14:24:36;13.80;99.90
44047;DHT22;29713;-33.888;151.150;2022-07-22T14:27:03;13.80;99.90
44047;DHT22;29713;-33.888;151.150;2022-07-22T14:29:30;13.80;99.90
44047;DHT22;29713;-33.888;151.150;2022-07-22T14:31:57;13.70;99.90
44047;DHT22;29713;-33.888;151.150;2022-07-22T14:34:25;13.70;99.90
44047;DHT22;29713;-33.888;151.150;2022-07-22T14:36:52;13.60;99.90
44047;DHT22;29713;-33.888;151.150;2022-07-22T14:39:19;13.50;99.90
44047;DHT22;29713;-33.888;151.150;2022-07-22T14:41:47;13.50;99.90
44047;DHT22;29713;-33.888;151.150;2022-07-22T14:44:14;13.40;99.90
44047;DHT22;29713;-33.888;151.150;2022-07-22T14:46:41;13.30;99.90
44047;DHT22;29713;-33.888;151.150;2022-07-22T14:49:09;13.30;99.90
44047;DHT22;29713;-33.888;151.150;2022-07-22T14:51:36;13.20;99.90
44047;DHT22;29713;-33.888;151.150;2022-07-22T14:54:03;13.20;99.90
44047;DHT22;29713;-33.888;151.150;2022-07-22T14:56:32;13.20;99.90
44047;DHT22;29713;-33.888;151.150;2022-07-22T14:59:00;13.10;99.90
44047;DHT22;29713;-33.888;151.150;2022-07-22T15:01:28;13.10;99.90
44047;DHT22;29713;-33.888;151.150;2022-07-22T15:03:56;13.10;99.90
44047;DHT22;29713;-33.888;151.150;2022-07-22T15:06:23;13.00;99.90
44047;DHT22;29713;-33.888;151.150;2022-07-22T15:08:50;13.00;99.90
44047;DHT22;29713;-33.888;151.150;2022-07-22T15:11:17;13.00;99.90
44047;DHT22;29713;-33.888;151.150;2022-07-22T15:13:45;12.90;99.90
44047;DHT22;29713;-33.888;151.150;2022-07-22T15:16:12;12.90;99.90